Zachary, Louisiana
Current Conditions -  °F | °C
As of 5:53 AM on Saturday 22 Nov 2014 (Local Time) from KBTR Reporting Station
Clear Clear  
Wind Chill: 51°   Ceiling: Unl
Heat Index: 51°   Visibility: 10mi
Dew Point: 47°   Wind: 8mph
Humidity: 86%   Direction: 80°E
Pressure: 30.2"   Gusts: NA
Location:  30.65°N, 91.16°W
Report Text: KBTR 221153Z AUTO 08007KT 10SM CLR 11/08 A3020 RMK AO2 SLP227 T01060083 10128 20100 56008 TSNO
Loading
Personal Weather Stations






























Interactive Weather Map New forecast layout! Learn more

10-Day Weather Forecast

Advertisements
Track Severe Weather on mobile